Time;durP1;ratioP1;P1;durP2;ratioP2;P2;SDS_P1;SDS_P2;PMS_P1;PMS_P2;Temp;Humidity;BMP_temperature;BMP_pressure;BME280_temperature;BME280_humidity;BME280_pressure;Samples;Min_cycle;Max_cycle;Signal;HPM_P1;HPM_P2
2021/10/27 00:01:03;;;;;;;;;;;;;;;;;;5027179;28;19925;-88
2021/10/27 00:03:32;;;;;;;;;;;;;;;;;;5029944;28;19929;-93
2021/10/27 00:06:00;;;;;;;;;;;;;;;;;;5062599;28;19929;-87
2021/10/27 00:08:28;;;;;;;;;;;;;;;;;;5062539;28;19933;-89
2021/10/27 00:10:57;;;;;;;;;;;;;;;;;;5015772;28;19933;-92
2021/10/27 00:13:25;;;;;;;;;;;;;;;;;;5015560;28;20320;-88
2021/10/27 00:15:55;;;;;;;;;;;;;;;;;;5043081;28;19933;-89
2021/10/27 00:18:23;;;;;;;;;;;;;;;;;;5046479;28;20381;-87
2021/10/27 00:20:51;;;;;;;;;;;;;;;;;;5030057;28;19929;-87
2021/10/27 00:23:20;;;;;;;;;;;;;;;;;;5016190;28;19933;-88
2021/10/27 00:25:48;;;;;;;;;;;;;;;;;;5065345;28;19929;-88
2021/10/27 00:28:16;;;;;;;;;;;;;;;;;;5019519;28;19926;-90
2021/10/27 00:30:45;;;;;;;;;;;;;;;;;;5041975;28;19931;-86
2021/10/27 00:33:16;;;;;;;;;;;;;;;;;;5031836;28;19932;-88
2021/10/27 00:35:44;;;;;;;;;;;;;;;;;;5020635;28;19932;-87
2021/10/27 00:38:13;;;;;;;;;;;;;;;;;;5015440;28;19929;-88
2021/10/27 00:40:41;;;;;;;;;;;;;;;;;;5047907;28;19932;-87
2021/10/27 00:43:09;;;;;;;;;;;;;;;;;;5030243;28;19936;-87
2021/10/27 00:45:37;;;;;;;;;;;;;;;;;;5015770;28;19929;-89
2021/10/27 00:48:06;;;;;;;;;;;;;;;;;;5044778;28;19936;-89
2021/10/27 00:50:35;;;;;;;;;;;;;;;;;;5013704;28;19936;-90
2021/10/27 00:53:04;;;;;;;;;;;;;;;;;;5048365;28;20396;-89
2021/10/27 00:55:32;;;;;;;;;;;;;;;;;;5061567;28;20298;-90
2021/10/27 00:58:00;;;;;;;;;;;;;;;;;;5013352;28;19932;-91
2021/10/27 01:00:29;;;;;;;;;;;;;;;;;;5044844;28;19933;-86
2021/10/27 01:02:57;;;;;;;;;;;;;;;;;;5042587;28;19932;-88
2021/10/27 01:05:25;;;;;;;;;;;;;;;;;;5013299;28;20419;-90
2021/10/27 01:07:55;;;;;;;;;;;;;;;;;;5048675;28;19925;-88
2021/10/27 01:10:23;;;;;;;;;;;;;;;;;;5060705;28;19932;-88
2021/10/27 01:12:52;;;;;;;;;;;;;;;;;;5015238;28;19925;-88
2021/10/27 01:15:20;;;;;;;;;;;;;;;;;;5011590;28;19925;-89
2021/10/27 01:17:49;;;;;;;;;;;;;;;;;;5044153;28;19952;-91
2021/10/27 01:20:18;;;;;;;;;;;;;;;;;;5029235;28;19925;-90
2021/10/27 01:22:46;;;;;;;;;;;;;;;;;;5030238;28;20038;-88
2021/10/27 01:25:15;;;;;;;;;;;;;;;;;;5048034;28;19925;-90
2021/10/27 01:27:44;;;;;;;;;;;;;;;;;;5014695;28;20392;-91
2021/10/27 01:30:13;;;;;;;;;;;;;;;;;;5037291;28;19939;-87
2021/10/27 01:32:42;;;;;;;;;;;;;;;;;;5049134;28;19925;-89
2021/10/27 01:35:11;;;;;;;;;;;;;;;;;;5030589;28;20275;-89
2021/10/27 01:37:40;;;;;;;;;;;;;;;;;;5048355;28;19933;-88
2021/10/27 01:40:10;;;;;;;;;;;;;;;;;;5018059;28;20052;-88
2021/10/27 01:42:38;;;;;;;;;;;;;;;;;;5034247;28;19925;-88
2021/10/27 01:45:07;;;;;;;;;;;;;;;;;;5046660;28;19925;-89
2021/10/27 01:47:36;;;;;;;;;;;;;;;;;;5014119;28;19936;-90
2021/10/27 01:50:05;;;;;;;;;;;;;;;;;;5029797;28;19929;-89
2021/10/27 01:52:34;;;;;;;;;;;;;;;;;;5046113;28;19933;-91
2021/10/27 01:55:04;;;;;;;;;;;;;;;;;;5030950;28;19932;-85
2021/10/27 01:57:32;;;;;;;;;;;;;;;;;;5050051;28;19925;-90
2021/10/27 02:00:04;;;;;;;;;;;;;;;;;;5010394;28;19925;-90
2021/10/27 02:02:39;;;;;;;;;;;;;;;;;;5065489;28;19940;-87
2021/10/27 02:05:08;;;;;;;;;;;;;;;;;;5048118;28;19925;-88
2021/10/27 02:07:36;;;;;;;;;;;;;;;;;;5045997;28;19951;-90
2021/10/27 02:10:07;;;;;;;;;;;;;;;;;;5019635;28;19925;-92
2021/10/27 02:12:35;;;;;;;;;;;;;;;;;;5028685;28;19925;-89
2021/10/27 02:15:04;;;;;;;;;;;;;;;;;;5047237;28;20304;-86
2021/10/27 02:17:32;;;;;;;;;;;;;;;;;;5030922;28;19925;-92
2021/10/27 02:20:01;;;;;;;;;;;;;;;;;;5032088;28;20301;-91
2021/10/27 02:22:29;;;;;;;;;;;;;;;;;;5046019;28;19932;-91
2021/10/27 02:24:57;;;;;;;;;;;;;;;;;;5031784;28;19932;-91
2021/10/27 02:27:27;;;;;;;;;;;;;;;;;;5012679;28;19932;-90
2021/10/27 02:29:55;;;;;;;;;;;;;;;;;;5021994;28;19948;-89
2021/10/27 02:32:23;;;;;;;;;;;;;;;;;;5019984;28;19925;-90
2021/10/27 02:34:52;;;;;;;;;;;;;;;;;;5017346;28;20309;-88
2021/10/27 02:37:20;;;;;;;;;;;;;;;;;;5033345;28;19925;-89
2021/10/27 02:39:49;;;;;;;;;;;;;;;;;;5049591;28;20263;-90
2021/10/27 02:42:18;;;;;;;;;;;;;;;;;;5049941;28;19933;-90
2021/10/27 02:44:48;;;;;;;;;;;;;;;;;;5017493;28;19925;-90
2021/10/27 02:47:16;;;;;;;;;;;;;;;;;;5016663;28;19925;-89
2021/10/27 02:49:45;;;;;;;;;;;;;;;;;;5057804;28;19921;-93
2021/10/27 02:52:16;;;;;;;;;;;;;;;;;;5068027;28;19929;-91
2021/10/27 02:54:45;;;;;;;;;;;;;;;;;;5022981;28;20278;-87
2021/10/27 02:57:13;;;;;;;;;;;;;;;;;;5049697;28;19925;-89
2021/10/27 02:59:41;;;;;;;;;;;;;;;;;;5021689;28;20424;-88
2021/10/27 03:02:11;;;;;;;;;;;;;;;;;;5014131;28;19933;-88
2021/10/27 03:04:39;;;;;;;;;;;;;;;;;;5016083;28;19932;-89
2021/10/27 03:07:07;;;;;;;;;;;;;;;;;;5052115;28;19925;-91
2021/10/27 03:09:36;;;;;;;;;;;;;;;;;;5064773;28;19925;-88
2021/10/27 03:12:04;;;;;;;;;;;;;;;;;;5044960;28;20136;-92
2021/10/27 03:14:33;;;;;;;;;;;;;;;;;;5050291;28;19932;-88
2021/10/27 03:17:01;;;;;;;;;;;;;;;;;;5049040;28;19925;-88
2021/10/27 03:19:31;;;;;;;;;;;;;;;;;;5029694;28;19925;-91
2021/10/27 03:21:59;;;;;;;;;;;;;;;;;;5030658;28;19925;-87
2021/10/27 03:24:27;;;;;;;;;;;;;;;;;;5059396;28;19932;-88
2021/10/27 03:26:55;;;;;;;;;;;;;;;;;;5062925;28;19932;-87
2021/10/27 03:29:24;;;;;;;;;;;;;;;;;;5060856;28;20653;-88
2021/10/27 03:31:52;;;;;;;;;;;;;;;;;;5049519;28;20177;-90
2021/10/27 03:34:20;;;;;;;;;;;;;;;;;;5010279;28;19926;-88
2021/10/27 03:36:51;;;;;;;;;;;;;;;;;;5047365;28;20555;-89
2021/10/27 03:39:19;;;;;;;;;;;;;;;;;;5008725;28;20171;-86
2021/10/27 03:41:48;;;;;;;;;;;;;;;;;;5043151;28;19925;-89
2021/10/27 03:44:16;;;;;;;;;;;;;;;;;;5038442;28;19933;-88
2021/10/27 03:46:45;;;;;;;;;;;;;;;;;;5029464;28;20309;-87
2021/10/27 03:49:13;;;;;;;;;;;;;;;;;;5063604;28;19929;-85
2021/10/27 03:51:42;;;;;;;;;;;;;;;;;;5030733;28;19929;-91
2021/10/27 03:54:11;;;;;;;;;;;;;;;;;;5016055;28;20294;-87
2021/10/27 03:56:40;;;;;;;;;;;;;;;;;;5038673;28;19940;-90
2021/10/27 03:59:08;;;;;;;;;;;;;;;;;;5032373;28;19929;-92
2021/10/27 04:01:36;;;;;;;;;;;;;;;;;;5045568;28;19932;-87
2021/10/27 04:04:05;;;;;;;;;;;;;;;;;;5011381;28;19933;-88
2021/10/27 04:06:33;;;;;;;;;;;;;;;;;;5059526;28;20308;-90
2021/10/27 04:09:02;;;;;;;;;;;;;;;;;;5010944;28;19932;-88
2021/10/27 04:11:31;;;;;;;;;;;;;;;;;;5024232;28;19936;-87
2021/10/27 04:14:00;;;;;;;;;;;;;;;;;;5027701;28;19932;-89
2021/10/27 04:16:28;;;;;;;;;;;;;;;;;;5027919;28;19925;-89
2021/10/27 04:18:56;;;;;;;;;;;;;;;;;;5011725;28;19960;-89
2021/10/27 04:21:24;;;;;;;;;;;;;;;;;;5042781;28;20289;-89
2021/10/27 04:23:53;;;;;;;;;;;;;;;;;;5028188;28;19925;-89
2021/10/27 04:26:21;;;;;;;;;;;;;;;;;;5013441;28;19933;-91
2021/10/27 04:28:52;;;;;;;;;;;;;;;;;;5044466;28;19940;-90
2021/10/27 04:31:20;;;;;;;;;;;;;;;;;;5044571;28;19933;-90
2021/10/27 04:33:48;;;;;;;;;;;;;;;;;;5015614;28;20948;-89
2021/10/27 04:36:17;;;;;;;;;;;;;;;;;;5050157;28;19924;-88
2021/10/27 04:38:45;;;;;;;;;;;;;;;;;;5025736;28;19940;-91
2021/10/27 04:41:14;;;;;;;;;;;;;;;;;;5028136;28;19933;-91
2021/10/27 04:43:42;;;;;;;;;;;;;;;;;;5045543;28;20412;-86
2021/10/27 04:46:12;;;;;;;;;;;;;;;;;;5027353;28;19952;-90
2021/10/27 04:48:40;;;;;;;;;;;;;;;;;;5029533;28;19929;-92
2021/10/27 04:51:09;;;;;;;;;;;;;;;;;;5045332;28;19929;-90
2021/10/27 04:53:37;;;;;;;;;;;;;;;;;;5058432;28;19939;-90
2021/10/27 04:56:05;;;;;;;;;;;;;;;;;;5010091;28;19932;-88
2021/10/27 04:58:34;;;;;;;;;;;;;;;;;;5042081;28;19925;-89
2021/10/27 05:01:02;;;;;;;;;;;;;;;;;;5042428;28;20376;-91
2021/10/27 05:03:33;;;;;;;;;;;;;;;;;;5043980;28;19925;-89
2021/10/27 05:06:02;;;;;;;;;;;;;;;;;;5012558;28;19925;-90
2021/10/27 05:08:31;;;;;;;;;;;;;;;;;;5062265;28;19940;-91
2021/10/27 05:11:00;;;;;;;;;;;;;;;;;;5041101;28;19939;-92
2021/10/27 05:13:29;;;;;;;;;;;;;;;;;;5032237;28;19933;-90
2021/10/27 05:15:57;;;;;;;;;;;;;;;;;;5010380;28;20412;-87
2021/10/27 05:18:27;;;;;;;;;;;;;;;;;;5013863;28;20412;-87
2021/10/27 05:20:57;;;;;;;;;;;;;;;;;;5037943;28;19940;-88
2021/10/27 05:23:25;;;;;;;;;;;;;;;;;;5010415;28;19936;-89
2021/10/27 05:25:53;;;;;;;;;;;;;;;;;;5045170;28;19925;-90
2021/10/27 05:28:22;;;;;;;;;;;;;;;;;;5050842;28;19932;-89
2021/10/27 05:30:50;;;;;;;;;;;;;;;;;;5029159;28;19932;-88
2021/10/27 05:33:18;;;;;;;;;;;;;;;;;;5036892;28;19929;-89
2021/10/27 05:35:46;;;;;;;;;;;;;;;;;;5037978;28;19932;-91
2021/10/27 05:38:16;;;;;;;;;;;;;;;;;;5024082;28;19925;-87
2021/10/27 05:40:44;;;;;;;;;;;;;;;;;;5043117;28;19925;-87
2021/10/27 05:43:14;;;;;;;;;;;;;;;;;;5043405;28;20464;-86
2021/10/27 05:45:42;;;;;;;;;;;;;;;;;;5041856;28;19933;-87
2021/10/27 05:48:13;;;;;;;;;;;;;;;;;;5026681;28;19936;-89
2021/10/27 05:50:43;;;;;;;;;;;;;;;;;;5024881;28;19925;-87
2021/10/27 05:55:58;;;;;;;;;;;;;;;;;;5022599;28;19944;-89
2021/10/27 05:58:27;;;;;;;;;;;;;;;;;;5027998;28;19932;-87
2021/10/27 06:00:56;;;;;;;;;;;;;;;;;;5025421;28;19933;-88
2021/10/27 06:03:24;;;;;;;;;;;;;;;;;;5035658;28;19925;-89
2021/10/27 06:05:53;;;;;;;;;;;;;;;;;;5042457;28;19931;-89
2021/10/27 06:08:21;;;;;;;;;;;;;;;;;;5033441;28;20310;-85
2021/10/27 06:10:55;;;;;;;;;;;;;;;;;;5031862;28;19925;-90
2021/10/27 06:13:31;;;;;;;;;;;;;;;;;;5014307;28;19925;-88
2021/10/27 06:15:59;;;;;;;;;;;;;;;;;;4997581;28;19925;-87
2021/10/27 06:18:28;;;;;;;;;;;;;;;;;;5005657;28;20457;-87
2021/10/27 06:20:56;;;;;;;;;;;;;;;;;;5036814;28;20050;-88
2021/10/27 06:23:24;;;;;;;;;;;;;;;;;;5046890;28;19924;-90
2021/10/27 06:25:53;;;;;;;;;;;;;;;;;;5045700;28;20282;-88
2021/10/27 06:28:24;;;;;;;;;;;;;;;;;;5064319;28;19928;-90
2021/10/27 06:30:57;;;;;;;;;;;;;;;;;;5029695;28;19925;-89
2021/10/27 06:33:40;;;;;;;;;;;;;;;;;;5041473;28;19932;-87
2021/10/27 06:36:12;;;;;;;;;;;;;;;;;;5042054;28;20297;-88
2021/10/27 06:38:59;;;;;;;;;;;;;;;;;;5006610;28;20236;-90
2021/10/27 06:47:14;;;;;;;;;;;;;;;;;;5011712;28;19924;-90
2021/10/27 06:49:43;;;;;;;;;;;;;;;;;;5034599;28;19932;-90
2021/10/27 06:52:11;;;;;;;;;;;;;;;;;;5002693;28;19940;-91
2021/10/27 06:54:39;;;;;;;;;;;;;;;;;;5043208;28;19936;-88
2021/10/27 06:57:07;;;;;;;;;;;;;;;;;;5027695;28;19932;-88
2021/10/27 06:59:38;;;;;;;;;;;;;;;;;;5003735;28;19933;-89
2021/10/27 07:05:16;;;;;;;;;;;;;;;;;;5008202;28;20316;-88
2021/10/27 07:16:05;;;;;;;;;;;;;;;;;;5058724;28;20293;-89
2021/10/27 07:18:34;;;;;;;;;;;;;;;;;;5052236;28;20309;-89
2021/10/27 07:21:03;;;;;;;;;;;;;;;;;;5012658;28;19936;-89
2021/10/27 07:23:33;;;;;;;;;;;;;;;;;;5039083;28;19932;-91
2021/10/27 07:26:02;;;;;;;;;;;;;;;;;;5022170;28;20424;-90
2021/10/27 07:28:31;;;;;;;;;;;;;;;;;;5011449;28;19929;-90
2021/10/27 07:31:01;;;;;;;;;;;;;;;;;;5064724;28;19921;-89
2021/10/27 07:33:30;;;;;;;;;;;;;;;;;;5045635;28;19913;-90
2021/10/27 07:36:02;;;;;;;;;;;;;;;;;;5008267;28;20494;-88
2021/10/27 07:41:18;;;;;;;;;;;;;;;;;;5064897;28;19936;-88
2021/10/27 07:43:46;;;;;;;;;;;;;;;;;;5047203;28;19925;-86
2021/10/27 07:46:16;;;;;;;;;;;;;;;;;;5046828;28;19925;-89
2021/10/27 07:48:44;;;;;;;;;;;;;;;;;;5010681;28;19947;-90
2021/10/27 07:51:13;;;;;;;;;;;;;;;;;;5025480;28;19926;-89
2021/10/27 07:53:43;;;;;;;;;;;;;;;;;;5058468;28;19936;-88
2021/10/27 07:56:12;;;;;;;;;;;;;;;;;;5057953;28;19925;-88
2021/10/27 07:58:41;;;;;;;;;;;;;;;;;;5027811;28;19926;-89
2021/10/27 08:01:09;;;;;;;;;;;;;;;;;;5020582;28;19925;-86
2021/10/27 08:03:39;;;;;;;;;;;;;;;;;;5033130;28;20119;-90
2021/10/27 08:06:10;;;;;;;;;;;;;;;;;;5035776;28;19929;-88
2021/10/27 08:08:39;;;;;;;;;;;;;;;;;;5035769;28;19928;-88
2021/10/27 08:11:09;;;;;;;;;;;;;;;;;;5040429;28;19925;-89
2021/10/27 08:13:38;;;;;;;;;;;;;;;;;;5023460;28;20420;-89
2021/10/27 08:16:07;;;;;;;;;;;;;;;;;;5019485;28;19940;-90
2021/10/27 08:18:35;;;;;;;;;;;;;;;;;;5020087;28;19932;-90
2021/10/27 08:21:03;;;;;;;;;;;;;;;;;;5055463;28;19925;-90
2021/10/27 08:23:35;;;;;;;;;;;;;;;;;;5031513;28;20397;-87
2021/10/27 08:26:08;;;;;;;;;;;;;;;;;;5021465;28;20320;-89
2021/10/27 08:28:40;;;;;;;;;;;;;;;;;;5025953;28;19936;-90
2021/10/27 08:31:14;;;;;;;;;;;;;;;;;;5020235;28;20330;-87
2021/10/27 08:34:00;;;;;;;;;;;;;;;;;;5023930;28;19929;-90
2021/10/27 08:36:29;;;;;;;;;;;;;;;;;;5056389;28;19936;-90
2021/10/27 08:38:57;;;;;;;;;;;;;;;;;;5036931;28;19929;-90
2021/10/27 08:41:41;;;;;;;;;;;;;;;;;;5009951;28;19954;-90
2021/10/27 08:44:11;;;;;;;;;;;;;;;;;;5025977;28;20281;-88
2021/10/27 08:46:40;;;;;;;;;;;;;;;;;;5020650;28;19933;-90
2021/10/27 08:49:09;;;;;;;;;;;;;;;;;;5052998;28;19940;-90
2021/10/27 08:51:37;;;;;;;;;;;;;;;;;;5039521;28;19929;-87
2021/10/27 08:54:07;;;;;;;;;;;;;;;;;;5022991;28;19932;-91
2021/10/27 08:56:35;;;;;;;;;;;;;;;;;;5025331;28;19925;-89
2021/10/27 08:59:11;;;;;;;;;;;;;;;;;;5027512;28;20200;-90
2021/10/27 09:01:50;;;;;;;;;;;;;;;;;;5060180;28;19929;-90
2021/10/27 09:04:28;;;;;;;;;;;;;;;;;;5004814;28;20324;-89
2021/10/27 09:07:09;;;;;;;;;;;;;;;;;;5007464;28;20408;-89
2021/10/27 09:09:54;;;;;;;;;;;;;;;;;;5026419;28;19944;-90
2021/10/27 09:34:58;;;;;;;;;;;;;;;;;;5039664;28;19925;-90
2021/10/27 09:37:42;;;;;;;;;;;;;;;;;;5039960;28;19929;-91
2021/10/27 09:40:35;;;;;;;;;;;;;;;;;;5033905;28;19925;-91
2021/10/27 10:05:27;;;;;;;;;;;;;;;;;;5034873;28;19933;-91
2021/10/27 10:07:57;;;;;;;;;;;;;;;;;;5057564;28;19940;-90
2021/10/27 10:10:25;;;;;;;;;;;;;;;;;;5040219;28;19933;-92
2021/10/27 10:12:54;;;;;;;;;;;;;;;;;;5021374;28;19925;-90
2021/10/27 10:15:26;;;;;;;;;;;;;;;;;;5044119;28;19929;-91
2021/10/27 10:17:55;;;;;;;;;;;;;;;;;;5015920;28;20305;-89
2021/10/27 10:20:23;;;;;;;;;;;;;;;;;;5026511;28;20392;-89
2021/10/27 10:23:18;;;;;;;;;;;;;;;;;;5017579;28;21486;-90
2021/10/27 10:25:57;;;;;;;;;;;;;;;;;;5060553;28;19933;-89
2021/10/27 10:28:27;;;;;;;;;;;;;;;;;;5010510;28;19940;-88
2021/10/27 10:30:57;;;;;;;;;;;;;;;;;;5026478;28;19925;-89
2021/10/27 10:33:37;;;;;;;;;;;;;;;;;;5025673;28;19925;-88
2021/10/27 10:36:09;;;;;;;;;;;;;;;;;;5007631;28;19940;-88
2021/10/27 10:38:51;;;;;;;;;;;;;;;;;;5036514;28;19933;-85
2021/10/27 10:41:48;;;;;;;;;;;;;;;;;;5020602;28;19932;-88
2021/10/27 10:59:48;;;;;;;;;;;;;;;;;;5024107;28;19929;-90
2021/10/27 11:23:52;;;;;;;;;;;;;;;;;;5020127;28;19925;-89
2021/10/27 11:39:31;;;;;;;;;;;;;;;;;;5026991;28;19925;-89
2021/10/27 11:42:36;;;;;;;;;;;;;;;;;;5040095;28;19932;-88
2021/10/27 11:45:24;;;;;;;;;;;;;;;;;;5024018;28;19932;-89
2021/10/27 11:48:22;;;;;;;;;;;;;;;;;;5024612;28;20583;-89
2021/10/27 11:51:13;;;;;;;;;;;;;;;;;;5013343;28;19925;-89
2021/10/27 11:57:03;;;;;;;;;;;;;;;;;;5007935;28;19925;-89
2021/10/27 11:59:47;;;;;;;;;;;;;;;;;;5031038;28;20401;-87
2021/10/27 12:02:18;;;;;;;;;;;;;;;;;;5039347;28;20397;-88
2021/10/27 12:04:47;;;;;;;;;;;;;;;;;;5036070;28;19933;-88
2021/10/27 12:07:19;;;;;;;;;;;;;;;;;;5003061;28;20300;-89
2021/10/27 12:10:01;;;;;;;;;;;;;;;;;;5039268;28;20385;-88
2021/10/27 12:12:34;;;;;;;;;;;;;;;;;;5044553;28;19913;-88
2021/10/27 12:18:00;;;;;;;;;;;;;;;;;;5005028;28;19929;-88
2021/10/27 12:20:29;;;;;;;;;;;;;;;;;;5004439;28;19933;-88
2021/10/27 12:22:57;;;;;;;;;;;;;;;;;;5007295;28;19925;-88
2021/10/27 12:25:26;;;;;;;;;;;;;;;;;;5032920;28;20432;-87
2021/10/27 12:28:00;;;;;;;;;;;;;;;;;;5050037;28;20293;-87
2021/10/27 12:30:36;;;;;;;;;;;;;;;;;;5038449;28;20739;-87
2021/10/27 12:33:06;;;;;;;;;;;;;;;;;;5041810;28;19925;-86
2021/10/27 12:35:35;;;;;;;;;;;;;;;;;;5012313;28;20401;-85
2021/10/27 12:38:25;;;;;;;;;;;;;;;;;;5024067;28;19925;-86
2021/10/27 12:41:00;;;;;;;;;;;;;;;;;;5009726;28;20312;-85
2021/10/27 12:43:32;;;;;;;;;;;;;;;;;;5030875;28;19936;-84
2021/10/27 12:46:00;;;;;;;;;;;;;;;;;;5025648;28;19925;-83
2021/10/27 12:48:37;;;;;;;;;;;;;;;;;;5016371;28;20286;-83
2021/10/27 12:51:08;;;;;;;;;;;;;;;;;;5018324;28;19925;-83
2021/10/27 12:53:39;;;;;;;;;;;;;;;;;;5014647;28;20629;-83
2021/10/27 12:56:10;;;;;;;;;;;;;;;;;;5040711;28;19925;-83
2021/10/27 12:58:42;;;;;;;;;;;;;;;;;;5063620;28;19925;-83
2021/10/27 13:01:23;;;;;;;;;;;;;;;;;;5028719;28;19925;-82
2021/10/27 13:06:45;;;;;;;;;;;;;;;;;;5005438;28;19925;-83
2021/10/27 13:09:32;;;;;;;;;;;;;;;;;;5013541;28;19929;-83
2021/10/27 13:17:40;;;;;;;;;;;;;;;;;;5006591;28;19925;-84
2021/10/27 13:31:11;;;;;;;;;;;;;;;;;;5013297;28;19925;-84
2021/10/27 13:33:39;;;;;;;;;;;;;;;;;;5021501;28;19933;-84
2021/10/27 13:36:11;;;;;;;;;;;;;;;;;;5021263;28;19929;-85
2021/10/27 13:38:39;;;;;;;;;;;;;;;;;;5038410;28;19925;-85
2021/10/27 13:41:08;;;;;;;;;;;;;;;;;;5041636;28;19925;-85
2021/10/27 13:43:39;;;;;;;;;;;;;;;;;;5037702;28;19929;-86
2021/10/27 13:46:30;;;;;;;;;;;;;;;;;;5019458;28;19925;-86
2021/10/27 13:49:19;;;;;;;;;;;;;;;;;;5035911;28;20184;-86
2021/10/27 14:08:28;;;;;;;;;;;;;;;;;;5049575;28;19925;-87
2021/10/27 14:11:02;;;;;;;;;;;;;;;;;;5019814;28;19934;-87
2021/10/27 14:13:41;;;;;;;;;;;;;;;;;;5036544;28;19925;-87
2021/10/27 14:16:26;;;;;;;;;;;;;;;;;;5003697;28;20377;-85
2021/10/27 15:20:11;;;;;;;;;;;;;;;;;;5040800;28;19925;-87
2021/10/27 15:22:50;;;;;;;;;;;;;;;;;;5042626;28;19932;-87
2021/10/27 15:25:44;;;;;;;;;;;;;;;;;;5024175;28;19925;-87
2021/10/27 15:28:23;;;;;;;;;;;;;;;;;;5027506;28;19932;-88
2021/10/27 15:31:22;;;;;;;;;;;;;;;;;;5010275;28;20298;-89
2021/10/27 15:36:52;;;;;;;;;;;;;;;;;;4996054;28;20409;-87
2021/10/27 15:42:21;;;;;;;;;;;;;;;;;;5039978;28;19925;-88
2021/10/27 15:45:08;;;;;;;;;;;;;;;;;;5021229;28;20317;-89
2021/10/27 15:50:44;;;;;;;;;;;;;;;;;;5024989;28;19925;-89
2021/10/27 15:53:13;;;;;;;;;;;;;;;;;;5040075;28;19925;-89
2021/10/27 15:55:41;;;;;;;;;;;;;;;;;;5042071;28;20293;-89
2021/10/27 15:58:09;;;;;;;;;;;;;;;;;;5023614;28;19925;-88
2021/10/27 16:00:39;;;;;;;;;;;;;;;;;;5036143;28;19933;-90
2021/10/27 16:03:09;;;;;;;;;;;;;;;;;;5006097;28;19933;-88
2021/10/27 16:05:39;;;;;;;;;;;;;;;;;;5009886;28;19929;-90
2021/10/27 16:08:07;;;;;;;;;;;;;;;;;;5022476;28;20296;-89
2021/10/27 16:10:36;;;;;;;;;;;;;;;;;;5057790;28;19941;-90
2021/10/27 16:13:04;;;;;;;;;;;;;;;;;;5036095;28;19940;-89
2021/10/27 16:15:37;;;;;;;;;;;;;;;;;;4998586;28;19952;-90
2021/10/27 16:18:06;;;;;;;;;;;;;;;;;;5052586;28;19925;-89
2021/10/27 16:20:36;;;;;;;;;;;;;;;;;;5039200;28;19940;-89
2021/10/27 16:23:05;;;;;;;;;;;;;;;;;;5032534;28;20394;-89
2021/10/27 16:25:33;;;;;;;;;;;;;;;;;;5001751;28;19925;-89
2021/10/27 16:28:02;;;;;;;;;;;;;;;;;;5025277;28;20024;-88
2021/10/27 16:30:30;;;;;;;;;;;;;;;;;;5002053;28;20405;-88
2021/10/27 16:32:59;;;;;;;;;;;;;;;;;;5016426;28;19940;-89
2021/10/27 16:35:28;;;;;;;;;;;;;;;;;;5001824;28;19936;-87
2021/10/27 16:37:59;;;;;;;;;;;;;;;;;;5015873;28;19944;-88
2021/10/27 16:40:27;;;;;;;;;;;;;;;;;;5034228;28;19940;-89
2021/10/27 16:42:56;;;;;;;;;;;;;;;;;;5005432;28;20344;-89
2021/10/27 16:45:29;;;;;;;;;;;;;;;;;;5035731;28;19928;-89
2021/10/27 16:47:57;;;;;;;;;;;;;;;;;;5039331;28;19948;-88
2021/10/27 16:50:26;;;;;;;;;;;;;;;;;;5005744;28;19975;-87
2021/10/27 16:52:57;;;;;;;;;;;;;;;;;;5004293;28;20432;-88
2021/10/27 16:55:28;;;;;;;;;;;;;;;;;;5022612;28;20310;-90
2021/10/27 16:57:57;;;;;;;;;;;;;;;;;;5033178;28;19921;-90
2021/10/27 17:00:27;;;;;;;;;;;;;;;;;;5025577;28;19925;-87
2021/10/27 17:02:55;;;;;;;;;;;;;;;;;;5015155;28;19939;-89
2021/10/27 17:05:24;;;;;;;;;;;;;;;;;;5053224;28;19933;-89
2021/10/27 17:07:53;;;;;;;;;;;;;;;;;;5019925;28;20364;-88
2021/10/27 17:10:21;;;;;;;;;;;;;;;;;;4997718;28;19991;-91
2021/10/27 17:12:51;;;;;;;;;;;;;;;;;;5049256;28;19936;-87
2021/10/27 17:15:20;;;;;;;;;;;;;;;;;;5018685;28;19948;-89
2021/10/27 17:17:48;;;;;;;;;;;;;;;;;;5017003;28;20234;-89
2021/10/27 17:20:18;;;;;;;;;;;;;;;;;;5032371;28;19933;-88
2021/10/27 17:22:46;;;;;;;;;;;;;;;;;;5033472;28;19940;-89
2021/10/27 17:25:16;;;;;;;;;;;;;;;;;;4997760;28;19929;-89
2021/10/27 17:27:46;;;;;;;;;;;;;;;;;;5004591;28;20381;-89
2021/10/27 17:30:16;;;;;;;;;;;;;;;;;;5053033;28;20389;-88
2021/10/27 17:32:45;;;;;;;;;;;;;;;;;;5015946;28;19940;-89
2021/10/27 17:35:15;;;;;;;;;;;;;;;;;;5034527;28;20189;-90
2021/10/27 17:37:44;;;;;;;;;;;;;;;;;;5036610;28;19936;-90
2021/10/27 17:40:16;;;;;;;;;;;;;;;;;;5032922;28;20290;-88
2021/10/27 17:42:48;;;;;;;;;;;;;;;;;;5022300;28;20059;-87
2021/10/27 17:45:22;;;;;;;;;;;;;;;;;;5036560;28;19925;-88
2021/10/27 17:47:56;;;;;;;;;;;;;;;;;;5020860;28;19933;-89
2021/10/27 17:50:36;;;;;;;;;;;;;;;;;;5041522;28;20389;-89
2021/10/27 17:58:40;;;;;;;;;;;;;;;;;;5020845;28;19925;-91
2021/10/27 18:01:10;;;;;;;;;;;;;;;;;;5041641;28;20440;-92
2021/10/27 18:03:40;;;;;;;;;;;;;;;;;;5044800;28;19925;-90
2021/10/27 18:06:09;;;;;;;;;;;;;;;;;;5024139;28;20293;-88
2021/10/27 18:08:39;;;;;;;;;;;;;;;;;;5062104;28;19932;-90
2021/10/27 18:11:10;;;;;;;;;;;;;;;;;;5040604;28;20092;-90
2021/10/27 18:13:43;;;;;;;;;;;;;;;;;;5061205;28;19932;-90
2021/10/27 18:16:18;;;;;;;;;;;;;;;;;;5032085;28;19932;-89
2021/10/27 18:18:51;;;;;;;;;;;;;;;;;;5024939;28;19940;-90
2021/10/27 18:21:24;;;;;;;;;;;;;;;;;;5027454;28;19929;-91
2021/10/27 18:24:20;;;;;;;;;;;;;;;;;;5029579;28;19932;-89
2021/10/27 18:27:09;;;;;;;;;;;;;;;;;;5033408;28;19926;-89
2021/10/27 18:38:34;;;;;;;;;;;;;;;;;;5017109;28;19932;-89
2021/10/27 18:41:12;;;;;;;;;;;;;;;;;;5041657;28;19933;-89
2021/10/27 18:43:41;;;;;;;;;;;;;;;;;;5024496;28;19929;-89
2021/10/27 18:46:10;;;;;;;;;;;;;;;;;;5009926;28;19929;-90
2021/10/27 18:48:42;;;;;;;;;;;;;;;;;;5010290;28;20151;-91
2021/10/27 18:51:14;;;;;;;;;;;;;;;;;;5042752;28;19925;-90
2021/10/27 18:54:08;;;;;;;;;;;;;;;;;;5031515;28;19935;-89
2021/10/27 18:56:39;;;;;;;;;;;;;;;;;;5010554;28;19925;-92
2021/10/27 18:59:12;;;;;;;;;;;;;;;;;;5043845;28;19932;-89
2021/10/27 19:01:49;;;;;;;;;;;;;;;;;;5014633;28;20393;-88
2021/10/27 19:12:39;;;;;;;;;;;;;;;;;;5002431;28;19940;-92
2021/10/27 19:15:30;;;;;;;;;;;;;;;;;;5058647;28;19925;-91
2021/10/27 19:17:58;;;;;;;;;;;;;;;;;;5075699;28;19917;-92
2021/10/27 19:20:28;;;;;;;;;;;;;;;;;;5056924;28;19925;-91
2021/10/27 19:22:57;;;;;;;;;;;;;;;;;;5067809;28;19935;-90
2021/10/27 19:25:29;;;;;;;;;;;;;;;;;;5013157;28;19925;-89
2021/10/27 19:28:09;;;;;;;;;;;;;;;;;;5029816;28;19929;-91
2021/10/27 19:30:58;;;;;;;;;;;;;;;;;;5042053;28;20436;-89
2021/10/27 20:10:04;;;;;;;;;;;;;;;;;;5074186;28;19929;-92
2021/10/27 20:18:39;;;;;;;;;;;;;;;;;;4960712;28;19930;-93
2021/10/27 20:52:19;;;;;;;;;;;;;;;;;;5056117;28;19921;-93
2021/10/27 20:54:51;;;;;;;;;;;;;;;;;;5054226;28;19940;-93
2021/10/27 20:57:32;;;;;;;;;;;;;;;;;;5044540;28;19929;-93
2021/10/27 21:00:09;;;;;;;;;;;;;;;;;;5093666;28;19909;-92
2021/10/27 21:03:09;;;;;;;;;;;;;;;;;;5058164;28;19916;-91
2021/10/27 21:14:04;;;;;;;;;;;;;;;;;;5039900;28;19921;-93
2021/10/27 21:16:34;;;;;;;;;;;;;;;;;;5059378;28;19909;-92
2021/10/27 21:19:03;;;;;;;;;;;;;;;;;;5036279;28;19915;-94
2021/10/27 21:21:31;;;;;;;;;;;;;;;;;;5055952;28;19935;-93
2021/10/27 21:23:59;;;;;;;;;;;;;;;;;;5053619;28;19913;-92
2021/10/27 21:26:28;;;;;;;;;;;;;;;;;;5068156;28;19913;-93
2021/10/27 21:29:01;;;;;;;;;;;;;;;;;;5069775;28;19933;-93
2021/10/27 21:31:39;;;;;;;;;;;;;;;;;;5084428;28;19915;-93
2021/10/27 21:42:43;;;;;;;;;;;;;;;;;;5035316;28;20050;-90
2021/10/27 21:45:13;;;;;;;;;;;;;;;;;;5060302;28;19913;-90
2021/10/27 21:47:42;;;;;;;;;;;;;;;;;;5073077;28;19909;-92
2021/10/27 21:50:13;;;;;;;;;;;;;;;;;;5073641;28;19925;-90
2021/10/27 21:52:42;;;;;;;;;;;;;;;;;;5041796;28;19909;-92
2021/10/27 21:55:11;;;;;;;;;;;;;;;;;;5056509;28;19920;-91
2021/10/27 21:57:39;;;;;;;;;;;;;;;;;;5076313;28;19909;-93
2021/10/27 22:00:08;;;;;;;;;;;;;;;;;;5073979;28;19909;-91
2021/10/27 22:02:37;;;;;;;;;;;;;;;;;;5078171;28;19919;-92
2021/10/27 22:05:06;;;;;;;;;;;;;;;;;;5042027;28;19925;-91
2021/10/27 22:07:36;;;;;;;;;;;;;;;;;;5057598;28;19935;-91
2021/10/27 22:10:05;;;;;;;;;;;;;;;;;;5075211;28;19921;-92
2021/10/27 22:12:33;;;;;;;;;;;;;;;;;;5039039;28;19925;-91
2021/10/27 22:15:03;;;;;;;;;;;;;;;;;;5041723;28;19909;-92
2021/10/27 22:17:31;;;;;;;;;;;;;;;;;;5076624;28;19916;-92
2021/10/27 22:20:00;;;;;;;;;;;;;;;;;;5074793;28;19925;-91
2021/10/27 22:22:29;;;;;;;;;;;;;;;;;;5068482;28;19910;-93
2021/10/27 22:24:59;;;;;;;;;;;;;;;;;;5040239;28;19928;-92
2021/10/27 22:27:27;;;;;;;;;;;;;;;;;;5066742;28;19929;-92
2021/10/27 22:29:56;;;;;;;;;;;;;;;;;;5057904;28;19935;-94
2021/10/27 22:32:24;;;;;;;;;;;;;;;;;;5056531;28;19929;-92
2021/10/27 22:34:52;;;;;;;;;;;;;;;;;;5083244;28;19923;-91
2021/10/27 22:37:21;;;;;;;;;;;;;;;;;;5058109;28;19909;-93
2021/10/27 22:39:49;;;;;;;;;;;;;;;;;;5039590;28;19931;-91
2021/10/27 22:42:19;;;;;;;;;;;;;;;;;;5039201;28;19923;-92
2021/10/27 22:44:49;;;;;;;;;;;;;;;;;;5057340;28;19935;-92
2021/10/27 22:47:17;;;;;;;;;;;;;;;;;;5040976;28;19916;-92
2021/10/27 22:49:46;;;;;;;;;;;;;;;;;;5044137;28;19912;-91
2021/10/27 22:52:15;;;;;;;;;;;;;;;;;;5045479;28;19923;-92
2021/10/27 22:54:43;;;;;;;;;;;;;;;;;;5047107;28;19925;-92
2021/10/27 22:57:12;;;;;;;;;;;;;;;;;;5095220;28;19925;-93